Pagrindinis puslapis
METAR-TAF:

METAR-TAF

Oro uostai :

Abu Dabis, Jungtiniai Arabų Emyratai

platuma: 24-26N, ilguma: 054-39E, Aukštis: 16 m

Dabartinis oras

Ataskaita buvo paskelbta 10 minutes, ne 11:00 UTC
Vėjas 8 kt iš Vakarų, svyruoja nuo Pietvakarių ir Vakarų/Šiaurės Vakarų
Temperatūra 31°C
Drėgmė 29%
Slėgis 1013 hPa
Matomumas 10 km arba daugiau
nėra debesų žemiau 1500 m ir nėra kamuolinių lietaus debesų

METAR: OMAA 071100Z 26008KT 220V290 CAVOK 31/11 Q1013 BECMG 33010KT

Laikas: 15:10 (11:10 UTC)

Prognozė

Ataskaita buvo paskelbta 6 valandos ir 10 minutes, ne 05:00 UTC
Prognozė galioja nuo 07 metu 06 UTC su 08 metu 12 UTC
Vėjas 12 kt iš Pietų
Matomumas: 8000 m
Tapsmas
nuo 07 metu 10 UTC su 07 metu 12 UTC
Vėjas 10 kt iš Šiaurės/Šiaurės Vakarų
Tapsmas
nuo 07 metu 17 UTC su 07 metu 19 UTC
Vėjas 6 kt iš Rytų/Šiaurės Rytų
Tapsmas
nuo 08 metu 08 UTC su 08 metu 10 UTC
Vėjas 12 kt iš Šiaurės Vakarų

TAF: OMAA 070500Z 0706/0812 17012KT 8000 NSC BECMG 0710/0712 33010KT BECMG 0717/0719 07006KT BECMG 0808/0810 32012KT

Orai ataskaitas ir orų prognozės (METAR, TAF).

turimą stotys yra geltonos ir raudonos taškus žemėlapyje.

Perkelti pele per norėdami pamatyti stoties vardą.

Tada spustelėkite, norėdami matyti oro stebėjimo ir prognozės.

Norėdami pakeisti žemėlapį: spustelėkite ant žalios mygtukų su juodo kryžiaus žemyn,; žalią mygtuką su brūkšneliu, jei norite nutolinti; arba žalių rodyklių gretimoms žemėlapius.


METAR-TAF: